Airfield :
LOGIN :

Register | Disclaimer

   EN    FR    IT 

 










Legend :    VFR   Marginal VFR   IFR   Intensive IFR   Very Intensive IFR
Visi :
Ceiling :
>= 8 km
>= 3000ft
5 to 8 km
1000 to 3000 ft
1500m to 5 km
500 to 1000 ft
800 to 1500m
200 to 500 ft
< 800m
< 200 ft
Symbols :   Thunderstorms  Fog  Heavy snow  Heavy precipitations  Wind > 20 kt
SIGMETs :     Misc.  Thunderstorms  Icing  Turbulence  Mountain Waves  Volcanic Ashes







- Airport Elevation : 147 ft
- IATA code : DUS


EDDL - Düsseldorf Int.

CURRENT METAR :
  • 200920Z 04009KT 020V080 CAVOK 20/10 Q1022 NOSIG

EXPIRED METARs :
  • 200850Z 04009KT 360V090 CAVOK 19/09 Q1022 NOSIG
  • 200820Z 04007KT 010V070 CAVOK 19/10 Q1023 NOSIG
  • 200750Z 03007KT CAVOK 17/09 Q1023 NOSIG
  • 200720Z 02005KT 320V060 CAVOK 16/09 Q1023 NOSIG
  • 200650Z 03004KT 330V060 CAVOK 14/08 Q1023 NOSIG

TAF TAF EDDL
Valid from the 20 at 06:00 until the 21 at 12:00 UTC


200500Z 2006/2112 03003KT CAVOK
BECMG 2008/2011 05009KT
TEMPO 2102/2106 05004KT
No reported NOTAMs for that airfield.



MET'MAP, your aeronautical weather chart ! - Copyright ORBIFLY December 2007 - Disclaimer

ORBIFLY MET'MAP TEAM :

Programming & Development : Alexandra Zaïnal
Concept & Development : Baudouin d'Aumeries
Co-Development & Prog : Marc-Olivier Méhu
Technical & hardware support : Manuel Goepfert

Contact : metmap@orbifly.com




SOURCES & CREDITS :

   NOAA